createdAt,value
2017-12-22T00:01:18.501Z,26.00
2017-12-22T00:03:45.161Z,28.08
2017-12-22T00:06:11.817Z,25.45
2017-12-22T00:08:38.491Z,26.73
2017-12-22T00:11:05.160Z,28.35
2017-12-22T00:13:31.807Z,27.05
2017-12-22T00:15:58.567Z,25.80
2017-12-22T00:18:25.216Z,26.15
2017-12-22T00:20:51.917Z,26.20
2017-12-22T00:23:18.670Z,24.87
2017-12-22T00:25:45.396Z,28.48
2017-12-22T00:28:12.112Z,28.58
2017-12-22T00:30:38.920Z,29.08
2017-12-22T00:33:05.577Z,23.33
2017-12-22T00:35:33.336Z,17.90
2017-12-22T00:37:59.978Z,6.75
2017-12-22T00:40:27.589Z,4.93
2017-12-22T00:42:55.006Z,4.82
2017-12-22T00:45:21.702Z,3.67
2017-12-22T00:47:48.356Z,3.42
2017-12-22T00:50:15.010Z,3.80
2017-12-22T00:52:41.760Z,3.80
2017-12-22T00:55:08.402Z,3.60
2017-12-22T00:57:35.795Z,3.20
2017-12-22T01:00:02.481Z,2.42
2017-12-22T01:02:29.112Z,2.60
2017-12-22T01:04:55.783Z,3.10
2017-12-22T01:07:22.533Z,2.28
2017-12-22T01:09:49.254Z,2.72
2017-12-22T01:12:15.898Z,2.97
2017-12-22T01:14:42.565Z,26.45
2017-12-22T01:30:29.979Z,22.05
2017-12-22T01:32:56.642Z,23.17
2017-12-22T01:35:23.290Z,24.08
2017-12-22T01:37:50.001Z,23.08
2017-12-22T01:40:16.674Z,23.90
2017-12-22T01:42:43.391Z,21.85
2017-12-22T01:45:10.050Z,23.52
2017-12-22T01:47:36.732Z,26.15
2017-12-22T01:50:04.107Z,24.77
2017-12-22T01:52:31.623Z,24.75
2017-12-22T01:54:58.287Z,21.10
2017-12-22T01:57:25.483Z,19.77
2017-12-22T01:59:53.115Z,17.10
2017-12-22T02:02:20.679Z,14.82
2017-12-22T02:04:47.342Z,15.35
2017-12-22T02:07:14.733Z,16.05
2017-12-22T02:09:41.409Z,15.65
2017-12-22T02:12:08.046Z,16.08
2017-12-22T02:14:34.691Z,16.37
2017-12-22T02:17:01.440Z,14.68
2017-12-22T02:19:28.091Z,15.68
2017-12-22T02:21:54.742Z,14.82
2017-12-22T02:24:22.179Z,17.27
2017-12-22T02:26:49.126Z,17.15
2017-12-22T02:29:15.777Z,15.85
2017-12-22T02:31:42.778Z,18.83
2017-12-22T02:34:09.583Z,18.80
2017-12-22T02:36:36.263Z,20.80
2017-12-22T02:39:03.094Z,19.30
2017-12-22T02:41:30.483Z,17.70
2017-12-22T02:43:57.142Z,18.58
2017-12-22T02:46:24.214Z,17.70
2017-12-22T02:48:50.863Z,17.10
2017-12-22T02:51:18.399Z,16.35
2017-12-22T02:53:45.039Z,18.20
2017-12-22T02:56:11.793Z,17.87
2017-12-22T02:58:38.426Z,16.77
2017-12-22T03:01:05.075Z,17.65
2017-12-22T03:03:31.772Z,18.25
2017-12-22T03:05:59.149Z,18.40
2017-12-22T03:08:25.772Z,19.08
2017-12-22T03:10:53.172Z,15.23
2017-12-22T03:13:19.817Z,14.65
2017-12-22T03:15:46.570Z,14.90
2017-12-22T03:18:13.309Z,14.75
2017-12-22T03:20:40.676Z,12.27
2017-12-22T03:23:07.369Z,12.48
2017-12-22T03:25:34.746Z,14.45
2017-12-22T03:28:01.423Z,12.18
2017-12-22T03:30:28.091Z,12.07
2017-12-22T03:32:54.717Z,11.80
2017-12-22T03:35:22.982Z,9.95
2017-12-22T03:37:49.677Z,8.35
2017-12-22T03:40:17.059Z,7.10
2017-12-22T03:42:43.808Z,7.53
2017-12-22T03:45:10.501Z,8.45
2017-12-22T03:47:37.130Z,8.25
2017-12-22T03:50:03.834Z,9.10
2017-12-22T03:52:30.488Z,8.30
2017-12-22T03:54:57.131Z,9.88
2017-12-22T03:57:24.586Z,8.18
2017-12-22T03:59:51.282Z,8.15
2017-12-22T04:02:17.931Z,7.10
2017-12-22T04:04:45.331Z,8.52
2017-12-22T04:07:12.002Z,8.57
2017-12-22T04:09:38.771Z,8.45
2017-12-22T04:12:05.426Z,6.05
2017-12-22T04:14:32.844Z,6.15
2017-12-22T04:16:59.474Z,7.37
2017-12-22T04:19:26.111Z,8.98
2017-12-22T04:21:52.794Z,9.68
2017-12-22T04:24:19.438Z,12.37
2017-12-22T04:26:46.074Z,17.15
2017-12-22T04:29:12.753Z,14.20
2017-12-22T04:31:39.393Z,16.27
2017-12-22T04:34:06.040Z,16.33
2017-12-22T04:36:32.717Z,15.65
2017-12-22T04:38:59.357Z,14.80
2017-12-22T04:41:26.930Z,16.55
2017-12-22T04:43:53.604Z,15.70
2017-12-22T04:46:20.583Z,16.75
2017-12-22T04:48:47.257Z,17.12
2017-12-22T04:51:13.915Z,16.77
2017-12-22T04:53:41.326Z,15.05
2017-12-22T04:56:07.963Z,16.30
2017-12-22T04:58:35.369Z,16.15
2017-12-22T05:01:03.012Z,16.30
2017-12-22T05:03:29.688Z,17.98
2017-12-22T05:05:56.324Z,19.87
2017-12-22T05:08:22.974Z,17.30
2017-12-22T05:10:49.611Z,16.05
2017-12-22T05:13:16.652Z,14.87
2017-12-22T05:15:43.335Z,16.25
2017-12-22T05:18:10.708Z,18.33
2017-12-22T05:20:38.091Z,17.05
2017-12-22T05:23:04.836Z,17.62
2017-12-22T05:25:31.467Z,15.80
2017-12-22T05:27:58.892Z,17.33
2017-12-22T05:30:26.323Z,18.10
2017-12-22T05:32:53.713Z,18.45
2017-12-22T05:35:21.122Z,18.00
2017-12-22T05:37:47.875Z,16.87
2017-12-22T05:40:14.542Z,14.45
2017-12-22T05:42:41.200Z,13.40
2017-12-22T05:45:08.621Z,12.88
2017-12-22T05:47:35.240Z,13.15
2017-12-22T05:50:01.880Z,13.00
2017-12-22T05:52:28.587Z,13.25
2017-12-22T05:54:56.746Z,15.25
2017-12-22T05:57:23.427Z,14.73
2017-12-22T05:59:50.089Z,14.43
2017-12-22T06:02:16.742Z,14.77
2017-12-22T06:04:43.389Z,16.48
2017-12-22T06:07:10.064Z,14.27
2017-12-22T06:09:36.716Z,14.68
2017-12-22T06:12:03.366Z,12.50
2017-12-22T06:14:30.783Z,12.57
2017-12-22T06:16:58.217Z,12.10
2017-12-22T06:19:24.849Z,11.60
2017-12-22T06:21:51.528Z,12.93
2017-12-22T06:24:18.937Z,12.40
2017-12-22T06:26:46.362Z,11.50
2017-12-22T06:29:13.028Z,12.37
2017-12-22T06:31:39.671Z,13.15
2017-12-22T06:34:06.343Z,13.48
2017-12-22T06:36:33.034Z,12.30
2017-12-22T06:38:59.682Z,15.02
2017-12-22T06:41:26.337Z,16.30
2017-12-22T06:43:53.094Z,18.67
2017-12-22T06:46:20.881Z,17.00
2017-12-22T06:48:47.514Z,15.73
2017-12-22T06:51:15.861Z,14.30
2017-12-22T06:53:42.611Z,14.87
2017-12-22T06:56:09.362Z,15.95
2017-12-22T06:58:36.038Z,15.23
2017-12-22T07:01:02.685Z,14.77
2017-12-22T07:03:29.309Z,16.52
2017-12-22T07:05:58.570Z,16.17
2017-12-22T07:08:25.201Z,15.82
2017-12-22T07:10:51.910Z,15.85
2017-12-22T07:13:18.637Z,18.10
2017-12-22T07:15:46.046Z,16.37
2017-12-22T07:18:12.700Z,14.52
2017-12-22T07:20:39.375Z,13.68
2017-12-22T07:23:06.754Z,15.00
2017-12-22T07:25:33.430Z,15.35
2017-12-22T07:28:00.916Z,14.95
2017-12-22T07:30:27.646Z,15.82
2017-12-22T07:32:54.277Z,17.55
2017-12-22T07:35:20.948Z,16.50
2017-12-22T07:37:47.596Z,14.07
2017-12-22T07:40:14.235Z,13.95
2017-12-22T07:42:41.690Z,14.27
2017-12-22T07:45:08.331Z,11.12
2017-12-22T07:47:34.978Z,11.45
2017-12-22T07:50:01.629Z,9.65
2017-12-22T07:52:28.276Z,8.80
2017-12-22T07:54:55.783Z,6.95
2017-12-22T07:57:22.475Z,7.40
2017-12-22T07:59:49.132Z,7.40
2017-12-22T08:02:16.515Z,6.80
2017-12-22T08:04:43.195Z,6.93
2017-12-22T08:07:09.845Z,7.30
2017-12-22T08:09:36.501Z,7.13
2017-12-22T08:12:03.197Z,7.40
2017-12-22T08:14:29.849Z,7.57
2017-12-22T08:16:56.501Z,6.60
2017-12-22T08:19:23.926Z,7.07
2017-12-22T08:21:50.637Z,6.40
2017-12-22T08:24:17.885Z,6.90
2017-12-22T08:26:45.563Z,6.10
2017-12-22T08:29:12.976Z,6.20
2017-12-22T08:31:39.732Z,6.93
2017-12-22T08:34:06.445Z,6.77
2017-12-22T08:36:33.105Z,6.70
2017-12-22T08:38:59.743Z,6.47
2017-12-22T08:41:26.409Z,7.00
2017-12-22T08:43:53.077Z,6.23
2017-12-22T08:46:19.726Z,7.07
2017-12-22T08:48:47.145Z,7.63
2017-12-22T08:51:14.814Z,6.33
2017-12-22T08:53:42.059Z,6.37
2017-12-22T08:56:08.759Z,6.87
2017-12-22T08:58:36.234Z,7.90
2017-12-22T09:01:02.893Z,10.65
2017-12-22T09:03:29.605Z,9.77
2017-12-22T09:05:57.033Z,7.67
2017-12-22T09:08:23.678Z,7.87
2017-12-22T09:10:50.325Z,8.63
2017-12-22T09:13:16.961Z,9.07
2017-12-22T09:15:43.607Z,9.32
2017-12-22T09:18:10.287Z,9.37
2017-12-22T09:20:37.677Z,13.33
2017-12-22T09:23:04.297Z,15.17
2017-12-22T09:25:31.066Z,11.57
2017-12-22T09:27:57.718Z,15.87
2017-12-22T09:30:24.391Z,20.13
2017-12-22T09:32:51.095Z,19.92
2017-12-22T09:35:17.799Z,21.37
2017-12-22T09:37:45.193Z,22.75
2017-12-22T09:40:11.882Z,20.58
2017-12-22T09:42:38.548Z,21.42
2017-12-22T09:45:05.197Z,20.20
2017-12-22T09:47:31.899Z,20.95
2017-12-22T09:49:58.555Z,22.05
2017-12-22T09:52:25.208Z,20.33
2017-12-22T09:54:52.631Z,20.52
2017-12-22T09:57:19.283Z,19.15
2017-12-22T09:59:45.933Z,22.00
2017-12-22T10:02:13.106Z,22.43
2017-12-22T10:04:40.501Z,19.62
2017-12-22T10:07:07.138Z,21.37
2017-12-22T10:09:33.824Z,22.02
2017-12-22T10:12:00.491Z,19.80
2017-12-22T10:14:27.861Z,22.77
2017-12-22T10:16:55.260Z,22.87
2017-12-22T10:19:21.914Z,24.33
2017-12-22T10:21:48.562Z,22.77
2017-12-22T10:24:15.562Z,23.65
2017-12-22T10:26:42.202Z,21.70
2017-12-22T10:29:09.590Z,22.67
2017-12-22T10:31:36.304Z,20.80
2017-12-22T10:34:03.696Z,18.10
2017-12-22T10:36:30.344Z,17.03
2017-12-22T10:38:58.132Z,18.07
2017-12-22T10:41:24.754Z,15.03
2017-12-22T10:43:51.394Z,15.33
2017-12-22T10:46:18.050Z,14.03
2017-12-22T10:48:44.691Z,15.13
2017-12-22T10:51:11.370Z,13.67
2017-12-22T10:53:38.774Z,13.63
2017-12-22T10:56:05.405Z,15.63
2017-12-22T10:58:32.061Z,13.50
2017-12-22T11:00:58.742Z,10.53
2017-12-22T11:03:25.409Z,10.40
2017-12-22T11:05:52.802Z,8.97
2017-12-22T11:08:19.447Z,7.63
2017-12-22T11:10:46.095Z,6.10
2017-12-22T11:13:12.753Z,7.50
2017-12-22T11:15:39.425Z,5.87
2017-12-22T11:18:06.849Z,5.97
2017-12-22T11:20:33.524Z,4.67
2017-12-22T11:23:00.204Z,5.00
2017-12-22T11:25:26.833Z,5.17
2017-12-22T11:27:53.512Z,14.50
2017-12-22T11:30:20.183Z,18.40
2017-12-22T11:32:46.816Z,17.70
2017-12-22T11:35:13.489Z,17.90
2017-12-22T11:37:40.866Z,15.23
2017-12-22T11:40:07.547Z,13.57
2017-12-22T11:42:34.965Z,15.87
2017-12-22T11:45:01.641Z,18.47
2017-12-22T11:47:28.304Z,15.80
2017-12-22T11:49:54.993Z,17.17
2017-12-22T11:52:21.645Z,20.70
2017-12-22T11:54:48.881Z,26.97
2017-12-22T11:57:17.276Z,28.13
2017-12-22T11:59:44.648Z,27.70
2017-12-22T12:02:11.299Z,29.77
2017-12-22T12:04:37.975Z,30.77
2017-12-22T12:07:04.675Z,27.30
2017-12-22T12:09:31.364Z,28.57
2017-12-22T12:11:58.040Z,26.83
2017-12-22T12:14:25.431Z,26.97
2017-12-22T12:16:52.786Z,25.37
2017-12-22T12:19:19.508Z,28.07
2017-12-22T12:21:46.179Z,27.70
2017-12-22T12:24:12.853Z,26.97
2017-12-22T12:26:39.519Z,27.90
2017-12-22T12:29:07.933Z,29.27
2017-12-22T12:31:34.589Z,28.53
2017-12-22T12:34:01.282Z,29.43
2017-12-22T12:36:27.934Z,27.87
2017-12-22T12:38:55.340Z,27.63
2017-12-22T12:41:22.024Z,29.70
2017-12-22T12:43:49.440Z,31.47
2017-12-22T12:46:16.086Z,30.80
2017-12-22T12:48:42.768Z,30.07
2017-12-22T12:51:09.425Z,28.50
2017-12-22T12:53:36.920Z,27.23
2017-12-22T12:56:04.837Z,27.60
2017-12-22T12:58:31.477Z,28.30
2017-12-22T13:00:58.203Z,27.73
2017-12-22T13:03:24.887Z,29.30
2017-12-22T13:05:52.294Z,25.93
2017-12-22T13:08:18.953Z,26.23
2017-12-22T13:10:45.726Z,29.47
2017-12-22T13:13:13.158Z,29.53
2017-12-22T13:15:40.707Z,27.20
2017-12-22T13:18:07.531Z,26.93
2017-12-22T13:20:34.173Z,24.80
2017-12-22T13:23:00.825Z,27.20
2017-12-22T13:25:27.552Z,25.80
2017-12-22T13:27:54.221Z,26.37
2017-12-22T13:30:20.846Z,23.10
2017-12-22T13:32:47.517Z,25.62
2017-12-22T13:35:14.176Z,23.48
2017-12-22T13:37:40.855Z,23.42
2017-12-22T13:40:07.555Z,22.27
2017-12-22T13:42:34.212Z,22.60
2017-12-22T13:45:00.876Z,21.93
2017-12-22T13:47:28.301Z,23.67
2017-12-22T13:49:55.782Z,23.03
2017-12-22T13:52:22.431Z,22.62
2017-12-22T13:54:49.078Z,20.80
2017-12-22T13:57:16.478Z,23.10
2017-12-22T13:59:43.206Z,20.77
2017-12-22T14:02:09.886Z,22.03
2017-12-22T14:04:36.586Z,22.20
2017-12-22T14:07:03.230Z,21.27
2017-12-22T14:09:29.901Z,19.90
2017-12-22T14:11:56.573Z,21.75
2017-12-22T14:14:24.046Z,18.80
2017-12-22T14:16:51.475Z,20.57
2017-12-22T14:19:18.118Z,20.83
2017-12-22T14:21:44.762Z,21.17
2017-12-22T14:24:12.178Z,19.80
2017-12-22T14:26:38.808Z,19.40
2017-12-22T14:29:06.218Z,19.37
2017-12-22T14:31:32.914Z,18.60
2017-12-22T14:34:00.319Z,19.73
2017-12-22T14:36:27.773Z,19.27
2017-12-22T14:38:54.447Z,20.23
2017-12-22T14:41:21.138Z,23.87
2017-12-22T14:43:47.798Z,25.40
2017-12-22T14:46:14.485Z,21.65
2017-12-22T14:48:41.125Z,21.42
2017-12-22T14:51:07.772Z,21.73
2017-12-22T14:53:35.194Z,19.60
2017-12-22T14:56:01.822Z,20.05
2017-12-22T14:58:28.481Z,20.33
2017-12-22T15:00:55.155Z,18.85
2017-12-22T15:03:22.549Z,19.12
2017-12-22T15:05:49.234Z,19.55
2017-12-22T15:08:15.895Z,21.00
2017-12-22T15:10:42.542Z,20.75
2017-12-22T15:13:09.202Z,20.17
2017-12-22T15:15:36.644Z,21.05
2017-12-22T15:18:03.301Z,19.52
2017-12-22T15:20:30.708Z,20.30
2017-12-22T15:22:57.363Z,18.40
2017-12-22T15:25:24.759Z,19.42
2017-12-22T15:27:52.182Z,20.50
2017-12-22T15:30:18.882Z,19.45
2017-12-22T15:32:45.531Z,19.40
2017-12-22T15:35:12.170Z,19.65
2017-12-22T15:37:38.858Z,21.95
2017-12-22T15:40:05.503Z,21.35
2017-12-22T15:42:32.177Z,20.88
2017-12-22T15:44:59.647Z,21.20
2017-12-22T15:47:27.043Z,19.73
2017-12-22T15:49:53.680Z,17.50
2017-12-22T15:52:20.422Z,22.13
2017-12-22T15:54:47.075Z,19.83
2017-12-22T15:57:13.726Z,21.45
2017-12-22T15:59:40.518Z,21.12
2017-12-22T16:02:07.936Z,19.92
2017-12-22T16:04:34.581Z,22.05
2017-12-22T16:07:01.264Z,24.12
2017-12-22T16:09:27.932Z,22.42
2017-12-22T16:11:54.570Z,22.50
2017-12-22T16:14:21.258Z,23.65
2017-12-22T16:16:47.905Z,23.65
2017-12-22T16:19:14.562Z,23.20
2017-12-22T16:21:42.012Z,24.75
2017-12-22T16:24:08.686Z,25.17
2017-12-22T16:26:35.362Z,24.98
2017-12-22T16:29:02.094Z,23.35
2017-12-22T16:31:28.726Z,25.65
2017-12-22T16:33:55.383Z,25.73
2017-12-22T16:36:22.147Z,24.20
2017-12-22T16:38:48.811Z,22.23
2017-12-22T16:41:15.465Z,22.60
2017-12-22T16:43:42.140Z,23.33
2017-12-22T16:46:08.823Z,24.33
2017-12-22T16:48:38.112Z,23.42
2017-12-22T16:51:04.785Z,25.23
2017-12-22T16:53:31.434Z,25.23
2017-12-22T16:55:59.809Z,24.58
2017-12-22T16:58:27.155Z,27.10
2017-12-22T17:00:53.816Z,26.27
2017-12-22T17:03:20.494Z,29.75
2017-12-22T17:05:47.173Z,29.73
2017-12-22T17:08:13.873Z,29.00
2017-12-22T17:10:41.282Z,29.50
2017-12-22T17:13:07.959Z,30.98
2017-12-22T17:15:35.382Z,30.05
2017-12-22T17:18:02.019Z,27.87
2017-12-22T17:20:28.693Z,28.40
2017-12-22T17:22:55.341Z,30.73
2017-12-22T17:25:21.988Z,31.08
2017-12-22T17:27:49.411Z,30.55
2017-12-22T17:30:16.166Z,32.15
2017-12-22T17:32:42.809Z,31.15
2017-12-22T17:35:09.497Z,30.83
2017-12-22T17:37:36.155Z,29.90
2017-12-22T17:40:02.858Z,32.22
2017-12-22T17:42:29.514Z,31.67
2017-12-22T17:44:56.895Z,32.17
2017-12-22T17:47:23.568Z,30.67
2017-12-22T17:49:51.133Z,30.80
2017-12-22T17:52:17.813Z,31.52
2017-12-22T17:54:45.235Z,29.75
2017-12-22T17:57:11.904Z,32.42
2017-12-22T17:59:38.559Z,32.30
2017-12-22T18:02:06.009Z,33.80
2017-12-22T18:04:32.678Z,32.67
2017-12-22T18:07:00.189Z,33.10
2017-12-22T18:09:26.921Z,32.75
2017-12-22T18:11:54.511Z,32.38
2017-12-22T18:14:22.052Z,31.30
2017-12-22T18:16:48.689Z,32.75
2017-12-22T18:19:15.369Z,31.17
2017-12-22T18:21:42.034Z,30.60
2017-12-22T18:24:09.434Z,28.50
2017-12-22T18:26:36.895Z,28.25
2017-12-22T18:29:03.612Z,27.48
2017-12-22T18:31:30.270Z,29.15
2017-12-22T18:33:56.995Z,26.67
2017-12-22T18:36:23.668Z,24.92
2017-12-22T18:38:50.337Z,24.08
2017-12-22T18:41:17.122Z,25.20
2017-12-22T18:43:44.522Z,28.20
2017-12-22T18:46:11.171Z,24.85
2017-12-22T18:48:37.849Z,25.25
2017-12-22T18:51:05.251Z,24.98
2017-12-22T18:53:31.897Z,23.20
2017-12-22T18:55:58.589Z,22.10
2017-12-22T18:58:25.213Z,24.30
2017-12-22T19:00:51.892Z,24.52
2017-12-22T19:03:29.590Z,25.75
2017-12-22T19:05:57.035Z,24.20
2017-12-22T19:08:23.985Z,27.13
2017-12-22T19:10:52.313Z,28.70
2017-12-22T19:13:18.993Z,27.50
2017-12-22T19:15:45.642Z,28.85
2017-12-22T19:18:12.346Z,29.55
2017-12-22T19:20:39.009Z,29.90
2017-12-22T19:23:05.917Z,29.17
2017-12-22T19:25:32.597Z,27.70
2017-12-22T19:28:00.466Z,28.77
2017-12-22T19:30:27.482Z,26.55
2017-12-22T19:32:54.471Z,28.73
2017-12-22T19:35:21.120Z,29.20
2017-12-22T19:37:47.970Z,28.40
2017-12-22T19:40:14.633Z,29.05
2017-12-22T19:42:41.377Z,29.20
2017-12-22T19:45:08.039Z,29.50
2017-12-22T19:47:36.267Z,28.67
2017-12-22T19:50:02.960Z,29.25
2017-12-22T19:52:30.700Z,29.63
2017-12-22T19:54:57.422Z,27.70
2017-12-22T19:57:24.087Z,27.35
2017-12-22T19:59:50.794Z,27.48
2017-12-22T20:02:17.501Z,27.75
2017-12-22T20:04:44.962Z,27.25
2017-12-22T20:07:12.359Z,26.62
2017-12-22T20:09:39.054Z,27.13
2017-12-22T20:12:06.462Z,25.83
2017-12-22T20:14:33.098Z,24.30
2017-12-22T20:17:00.938Z,23.85
2017-12-22T20:19:27.772Z,22.15
2017-12-22T20:21:54.677Z,21.25
2017-12-22T20:24:21.447Z,20.45
2017-12-22T20:26:48.092Z,20.35
2017-12-22T20:29:14.934Z,18.60
2017-12-22T20:31:42.449Z,20.10
2017-12-22T20:34:09.114Z,19.95
2017-12-22T20:36:35.767Z,18.95
2017-12-22T20:39:02.549Z,17.75
2017-12-22T20:41:30.948Z,17.60
2017-12-22T20:43:57.605Z,17.17
2017-12-22T20:46:24.525Z,16.35
2017-12-22T20:48:51.985Z,16.70
2017-12-22T20:51:19.420Z,18.37
2017-12-22T20:53:47.789Z,16.05
2017-12-22T20:56:15.205Z,14.75
2017-12-22T20:58:41.884Z,14.93
2017-12-22T21:01:08.538Z,14.60
2017-12-22T21:03:35.279Z,14.90
2017-12-22T21:06:01.951Z,13.45
2017-12-22T21:08:28.689Z,16.00
2017-12-22T21:10:55.697Z,15.77
2017-12-22T21:13:22.675Z,16.75
2017-12-22T21:15:49.334Z,17.70
2017-12-22T21:18:15.993Z,17.62
2017-12-22T21:20:43.414Z,18.00
2017-12-22T21:23:10.049Z,19.67
2017-12-22T21:25:36.905Z,20.10
2017-12-22T21:28:03.578Z,18.73
2017-12-22T21:30:30.959Z,20.12
2017-12-22T21:32:57.640Z,18.90
2017-12-22T21:35:25.060Z,18.48
2017-12-22T21:37:51.735Z,17.10
2017-12-22T21:40:18.567Z,18.40
2017-12-22T21:42:45.280Z,19.30
2017-12-22T21:45:12.682Z,18.48
2017-12-22T21:47:40.231Z,19.35
2017-12-22T21:50:06.894Z,18.40
2017-12-22T21:52:33.549Z,19.58
2017-12-22T21:55:00.239Z,18.95
2017-12-22T21:57:28.625Z,19.95
2017-12-22T21:59:55.276Z,19.45
2017-12-22T22:02:21.957Z,18.60
2017-12-22T22:04:49.378Z,18.60
2017-12-22T22:07:16.022Z,20.88
2017-12-22T22:09:42.702Z,21.55
2017-12-22T22:12:09.372Z,19.83
2017-12-22T22:14:36.013Z,18.60
2017-12-22T22:17:03.581Z,17.87
2017-12-22T22:19:31.315Z,17.45
2017-12-22T22:21:57.953Z,16.20
2017-12-22T22:24:25.603Z,15.93
2017-12-22T22:26:52.284Z,17.17
2017-12-22T22:29:20.792Z,19.08
2017-12-22T22:31:49.838Z,16.48
2017-12-22T22:34:16.552Z,15.02
2017-12-22T22:36:43.203Z,15.60
2017-12-22T22:39:09.986Z,16.95
2017-12-22T22:41:36.627Z,17.55
2017-12-22T22:44:03.378Z,17.50
2017-12-22T22:46:31.097Z,17.20
2017-12-22T22:48:57.787Z,15.35
2017-12-22T22:51:24.491Z,15.63
2017-12-22T22:53:51.551Z,15.10
2017-12-22T22:56:18.366Z,15.63
2017-12-22T22:58:46.515Z,23.98
2017-12-22T23:01:13.170Z,17.77
2017-12-22T23:03:39.833Z,18.83
2017-12-22T23:06:07.231Z,22.83
2017-12-22T23:08:33.878Z,25.92
2017-12-22T23:11:00.558Z,24.52
2017-12-22T23:13:28.042Z,33.45
2017-12-22T23:15:56.501Z,28.05
2017-12-22T23:18:23.175Z,33.17
2017-12-22T23:20:49.910Z,29.52
2017-12-22T23:23:17.298Z,26.48
2017-12-22T23:25:43.980Z,28.80
2017-12-22T23:28:10.621Z,29.70
2017-12-22T23:30:38.149Z,27.00
2017-12-22T23:33:05.114Z,26.15
2017-12-22T23:35:31.790Z,27.13
2017-12-22T23:37:59.384Z,28.98
2017-12-22T23:40:26.675Z,29.08
2017-12-22T23:42:53.325Z,30.35
2017-12-22T23:45:19.989Z,28.40
2017-12-22T23:47:46.651Z,28.70
2017-12-22T23:50:14.063Z,30.77
2017-12-22T23:52:40.767Z,26.60
2017-12-22T23:55:07.515Z,27.70
2017-12-22T23:57:34.327Z,25.58
